Latest Weather Observations for Albion Park

IDN60801

Issued at 3:04 pm EDT Monday 22 December 2014 (issued every 30 minutes, with the page automatically refreshed every 10 minutes)

About weather observations | Map of weather stations | Latest weather observations for NSW | Other Formats
Station Details ID: 068241 Name: WOLLONGONG AIRPORT Lat: -34.56 Lon: 150.79 Height: 8.0 m
Data from the previous 72 hours. | See also: Recent months at Albion Park
Date/Time
EDT
Temp
°C
App
Temp
°C
Dew
Point
Rel
Hum
%
Delta-T
°C
Wind Press
QNH
hPa
Press
MSL
hPa
Rain
since 9 am
mm
Dir
 
Spd
km/h
Gust
km/h
Spd
kts
Gust
kts
22/03:00pm 25.2 24.1 20.2 74 3.2 NNE 26 32 14 17 1015.2 1015.2 0.0
22/02:30pm 25.4 23.7 19.8 71 3.6 NE 28 39 15 21 1015.3 1015.3 0.0
22/02:00pm 25.3 23.0 20.1 73 3.4 NE 32 43 17 23 1015.5 1015.5 0.0
22/01:30pm 25.2 23.6 20.0 73 3.4 NE 28 33 15 18 1016.1 1016.1 0.0
22/01:00pm 24.9 23.1 19.5 72 3.5 NE 28 33 15 18 1016.2 1016.2 0.0
22/12:30pm 24.8 23.2 20.1 75 3.0 NE 28 33 15 18 1016.5 1016.5 0.0
22/12:00pm 24.8 23.5 19.8 74 3.2 NE 26 33 14 18 1016.6 1016.6 0.0
22/11:30am 24.5 23.3 19.3 73 3.3 NE 24 32 13 17 1016.5 1016.5 0.0
22/11:00am 24.4 23.7 19.5 74 3.1 NE 22 28 12 15 1016.4 1016.4 0.0
22/10:30am 24.5 24.4 19.6 74 3.2 NE 19 24 10 13 1016.5 1016.5 0.0
22/10:00am 24.0 24.4 18.9 73 3.2 ENE 15 20 8 11 1016.5 1016.5 0.0
22/09:30am 23.6 24.6 18.7 74 3.1 NE 11 15 6 8 1016.6 1016.6 0.0
22/09:00am 22.5 23.9 18.7 79 2.4 ENE 9 11 5 6 1016.7 1016.7 0.0
22/08:30am 21.1 22.7 18.3 84 1.7 NNW 7 9 4 5 1016.6 1016.6 0.0
22/08:00am 19.8 22.7 18.3 91 0.9 CALM 0 0 0 0 1016.4 1016.4 0.0
22/07:30am 19.0 22.0 18.5 97 0.3 CALM 0 0 0 0 1016.2 1016.2 0.0
22/07:00am 17.9 20.6 17.7 99 0.1 CALM 0 6 0 3 1015.9 1015.9 0.0
22/06:30am 16.2 16.9 16.0 99 0.1 W 7 9 4 5 1015.7 1015.7 0.0
22/06:00am 15.8 16.5 15.6 99 0.1 WNW 6 9 3 5 1015.4 1015.4 0.0
22/05:30am 15.5 16.1 15.3 99 0.1 W 6 9 3 5 1015.0 1015.0 0.0
22/05:00am 16.1 18.1 15.9 99 0.1 CALM 0 0 0 0 1014.6 1014.6 0.0
22/04:30am 16.5 18.2 16.3 99 0.1 W 2 7 1 4 1014.6 1014.6 0.0
22/03:30am 17.0 19.3 16.8 99 0.1 CALM 0 0 0 0 1014.7 1014.7 0.0
22/02:30am 17.3 19.6 16.8 97 0.3 CALM 0 0 0 0 1015.3 1015.3 0.0
22/02:00am 17.4 19.8 16.9 97 0.3 CALM 0 0 0 0 1015.6 1015.6 0.0
22/01:30am 17.6 20.0 17.0 96 0.4 CALM 0 0 0 0 1016.0 1016.0 0.0
22/01:00am 17.9 20.3 17.1 95 0.5 CALM 0 0 0 0 1016.1 1016.1 0.0
22/12:30am 18.0 19.8 17.4 96 0.4 WNW 4 6 2 3 1016.3 1016.3 0.0
22/12:00am 18.4 19.9 17.6 95 0.5 WNW 6 7 3 4 1016.4 1016.4 0.0
 
Date/Time
EDT
Temp
°C
App
Temp
°C
Dew
Point
Rel
Hum
%
Delta-T
°C
Wind Press
QNH
hPa
Press
MSL
hPa
Rain
since 9 am
mm
Dir
 
Spd
km/h
Gust
km/h
Spd
kts
Gust
kts
21/11:30pm 18.5 19.5 17.7 95 0.5 WNW 9 11 5 6 1016.5 1016.5 0.0
21/11:00pm 19.1 20.5 17.9 93 0.7 WNW 7 9 4 5 1016.3 1016.3 0.0
21/10:30pm 19.5 20.6 18.0 91 0.9 WNW 9 13 5 7 1016.6 1016.6 0.0
21/10:00pm 20.5 21.6 17.9 85 1.6 NW 9 11 5 6 1016.5 1016.5 0.0
21/09:30pm 22.0 21.9 18.8 82 2.0 NE 17 24 9 13 1016.5 1016.5 0.0
21/09:00pm 22.2 21.8 18.8 81 2.1 NNE 19 26 10 14 1016.4 1016.4 0.0
21/08:30pm 22.4 22.0 18.8 80 2.3 NNE 19 26 10 14 1016.0 1016.0 0.0
21/08:00pm 22.7 22.1 18.9 79 2.4 NNE 20 28 11 15 1015.7 1015.7 0.0
21/07:30pm 22.9 21.8 18.7 77 2.7 NE 22 32 12 17 1015.4 1015.4 0.0
21/07:00pm 23.3 20.9 18.2 73 3.2 NE 28 39 15 21 1015.2 1015.2 0.0
21/06:30pm 24.0 22.4 18.4 71 3.5 NE 24 33 13 18 1015.0 1015.0 0.0
21/05:30pm 24.4 22.3 18.1 68 4.0 NE 26 39 14 21 1014.9 1014.9 0.0
21/05:00pm 24.3 22.3 17.5 66 4.2 NE 24 35 13 19 1015.2 1015.2 0.0
21/04:30pm 24.6 22.5 18.1 67 4.1 NE 26 33 14 18 1015.3 1015.3 0.0
21/04:00pm 24.7 22.3 18.2 67 4.1 NE 28 37 15 20 1015.4 1015.4 0.0
21/03:30pm 24.8 22.8 18.3 67 4.1 NE 26 35 14 19 1015.6 1015.6 0.0
21/03:00pm 24.8 22.1 18.5 68 4.0 NE 30 39 16 21 1015.7 1015.7 0.0
21/02:30pm 24.7 21.4 17.9 66 4.3 NE 32 43 17 23 1015.6 1015.6 0.0
21/02:00pm 24.8 22.2 17.8 65 4.4 NE 28 39 15 21 1016.0 1016.0 0.0
21/01:30pm 24.8 21.4 17.8 65 4.4 NE 32 41 17 22 1016.4 1016.4 0.0
21/01:00pm 25.0 21.9 18.4 66 4.2 NE 32 41 17 22 1017.0 1017.0 0.0
21/12:30pm 25.3 22.5 18.2 64 4.5 NE 30 37 16 20 1017.4 1017.4 0.0
21/12:00pm 24.8 22.0 17.3 63 4.7 NE 28 35 15 19 1017.5 1017.5 0.0
21/11:30am 24.2 21.8 17.4 65 4.2 ENE 26 32 14 17 1017.7 1017.7 0.0
21/11:00am 24.6 23.1 17.6 65 4.4 NE 22 30 12 16 1017.5 1017.5 0.0
21/10:30am 24.6 21.8 14.4 53 6.0 N 22 32 12 17 1017.7 1017.7 0.0
21/10:00am 24.2 21.4 14.3 54 5.8 N 22 35 12 19 1017.8 1017.8 0.0
21/09:30am 23.5 21.8 14.8 58 5.2 N 17 24 9 13 1018.0 1018.0 0.0
21/09:00am 22.5 21.4 15.4 64 4.2 N 15 20 8 11 1018.3 1018.3 0.0
21/08:30am 21.7 21.0 15.3 67 3.8 N 13 19 7 10 1018.4 1018.4 0.0
21/08:00am 20.1 20.8 15.5 75 2.7 NW 6 7 3 4 1018.3 1018.3 0.0
21/07:30am 18.2 18.5 15.1 82 1.8 WNW 7 9 4 5 1018.1 1018.1 0.0
21/07:00am 16.0 16.8 14.7 92 0.7 W 4 6 2 3 1017.9 1017.9 0.0
21/06:30am 14.7 15.2 14.1 96 0.3 W 4 7 2 4 1017.9 1017.9 0.0
21/06:00am 14.0 15.1 13.4 96 0.3 CALM 0 6 0 3 1017.8 1017.8 0.0
21/05:30am 14.2 15.3 13.4 95 0.4 CALM 0 6 0 3 1017.6 1017.6 0.0
21/05:00am 14.3 15.0 13.5 95 0.4 W 2 7 1 4 1017.4 1017.4 0.0
21/04:30am 14.5 14.8 13.5 94 0.6 W 4 11 2 6 1017.3 1017.3 0.0
21/04:00am 15.2 14.8 14.2 94 0.6 WNW 9 11 5 6 1017.3 1017.3 0.0
21/03:30am 15.6 16.6 14.3 92 0.7 W 2 7 1 4 1017.4 1017.4 0.0
21/03:00am 16.2 16.5 14.6 90 0.9 W 6 7 3 4 1017.5 1017.5 0.0
21/02:30am 16.7 17.6 15.1 90 0.9 NW 4 13 2 7 1017.6 1017.6 0.0
21/02:00am 17.1 18.4 15.1 88 1.2 WNW 2 6 1 3 1018.0 1018.0 0.0
21/01:30am 16.8 17.2 14.8 88 1.2 WNW 6 7 3 4 1018.2 1018.2 0.0
21/01:00am 16.7 16.6 14.9 89 1.0 W 9 11 5 6 1018.6 1018.6 0.0
21/12:30am 16.8 17.3 15.0 89 1.0 WSW 6 7 3 4 1018.9 1018.9 0.0
21/12:00am 16.4 16.2 14.8 90 0.9 WSW 9 11 5 6 1019.2 1019.2 0.0
 
Date/Time
EDT
Temp
°C
App
Temp
°C
Dew
Point
Rel
Hum
%
Delta-T
°C
Wind Press
QNH
hPa
Press
MSL
hPa
Rain
since 9 am
mm
Dir
 
Spd
km/h
Gust
km/h
Spd
kts
Gust
kts
20/11:30pm 16.3 15.7 14.5 89 1.0 W 11 11 6 6 1019.2 1019.2 0.0
20/11:00pm 16.3 16.1 14.7 90 0.9 W 9 11 5 6 1019.4 1019.4 0.0
20/10:30pm 16.3 15.5 14.1 87 1.2 W 11 13 6 7 1019.2 1019.2 0.0
20/10:00pm 16.4 15.7 14.4 88 1.1 W 11 11 6 6 1019.0 1019.0 0.0
20/09:30pm 17.1 17.0 14.0 82 1.8 W 7 9 4 5 1018.7 1018.7 0.0
20/09:00pm 19.4 19.3 14.0 71 3.1 N 7 11 4 6 1018.4 1018.4 0.0
20/08:30pm 19.8 19.0 14.0 69 3.3 NNE 11 17 6 9 1018.1 1018.1 0.0
20/08:00pm 19.8 18.2 14.0 69 3.3 NE 15 20 8 11 1017.6 1017.6 0.0
20/07:30pm 20.3 19.0 13.7 66 3.8 NE 13 19 7 10 1017.2 1017.2 0.0
20/07:00pm 20.6 18.6 13.8 65 3.9 NE 17 20 9 11 1016.7 1016.7 0.0
20/06:30pm 21.0 18.9 13.7 63 4.2 NE 17 26 9 14 1016.4 1016.4 0.0
20/06:00pm 21.1 19.1 13.8 63 4.2 NE 17 28 9 15 1016.1 1016.1 0.0
20/05:30pm 21.1 19.4 13.5 62 4.4 NE 15 22 8 12 1016.2 1016.2 0.0
20/05:00pm 21.3 19.5 13.2 60 4.6 NE 15 24 8 13 1016.1 1016.1 0.0
20/04:30pm 21.4 19.4 13.8 62 4.4 NE 17 24 9 13 1016.2 1016.2 0.0
20/04:00pm 21.7 19.6 14.6 64 4.2 NE 19 24 10 13 1016.5 1016.5 0.0
20/03:30pm 21.4 18.8 13.1 59 4.7 NE 19 24 10 13 1016.6 1016.6 0.0
20/03:00pm 21.5 19.1 13.9 62 4.4 NE 19 28 10 15 1016.8 1016.8 0.0
20/02:30pm 21.7 19.3 13.9 61 4.5 NE 19 24 10 13 1017.0 1017.0 0.0
20/02:00pm 21.4 19.4 13.8 62 4.4 NE 17 24 9 13 1017.0 1017.0 0.0
20/01:30pm 21.4 19.1 14.1 63 4.2 NE 19 24 10 13 1017.3 1017.3 0.0
20/01:00pm 21.4 19.2 14.3 64 4.1 NE 19 28 10 15 1017.6 1017.6 0.0
20/12:30pm 21.4 19.5 14.3 64 4.1 NE 17 22 9 12 1017.9 1017.9 0.0
20/12:00pm 20.5 18.1 13.7 65 3.9 NE 19 22 10 12 1018.1 1018.1 0.0
20/11:30am 20.8 18.9 13.0 61 4.4 NE 15 20 8 11 1018.3 1018.3 0.0
20/11:00am 20.9 19.3 13.8 64 4.1 ENE 15 19 8 10 1018.3 1018.3 0.0
20/10:30am 20.1 18.3 12.1 60 4.5 NE 13 19 7 10 1018.3 1018.3 0.0
20/10:00am 19.9 18.4 13.1 65 3.9 NNE 13 17 7 9 1018.5 1018.5 0.0
20/09:30am 20.3 19.8 12.0 59 4.6 N 6 11 3 6 1018.6 1018.6 0.0
20/09:00am 19.4 18.8 12.2 63 4.0 NE 7 13 4 7 1018.7 1018.7 0.0
20/08:30am 19.2 19.1 12.0 63 4.0 S 4 7 2 4 1018.7 1018.7 0.0
20/08:00am 18.2 17.5 12.0 67 3.4 W 7 11 4 6 1018.5 1018.5 0.0
20/07:30am 16.9 16.5 13.0 78 2.2 W 7 9 4 5 1018.4 1018.4 0.0
20/07:00am 15.4 14.7 13.1 86 1.3 WSW 9 11 5 6 1018.1 1018.1 0.0
20/06:30am 15.4 14.7 13.2 87 1.2 WNW 9 9 5 5 1017.9 1017.9 0.0
20/06:00am 14.8 15.4 13.0 89 1.0 SW 2 6 1 3 1017.7 1017.7 0.0
20/05:30am 14.7 15.0 13.4 92 0.7 S 4 7 2 4 1017.7 1017.7 0.0
20/05:00am 14.9 14.7 13.1 89 1.0 W 6 7 3 4 1017.6 1017.6 0.0
20/04:30am 15.5 15.5 13.5 88 1.1 SW 6 7 3 4 1017.3 1017.3 0.0
20/04:00am 16.0 16.0 13.5 85 1.4 WSW 6 9 3 5 1017.3 1017.3 0.0
20/03:30am 16.2 16.0 13.7 85 1.4 W 7 9 4 5 1017.5 1017.5 0.0
20/03:00am 16.4 16.2 13.5 83 1.6 WNW 7 9 4 5 1017.7 1017.7 0.0
20/02:30am 16.4 17.2 12.6 78 2.1 CALM 0 0 0 0 1017.9 1017.9 0.0
20/02:00am 16.7 16.4 12.8 78 2.2 SSW 6 7 3 4 1018.0 1018.0 0.0
20/01:30am 16.7 16.4 12.7 77 2.2 SSW 6 7 3 4 1018.3 1018.3 0.0
20/01:00am 16.7 15.8 12.7 77 2.2 S 9 13 5 7 1018.5 1018.5 0.0
20/12:30am 17.0 16.4 12.3 74 2.6 SSE 7 11 4 6 1018.8 1018.8 0.0
20/12:00am 17.3 16.9 13.0 76 2.4 SSW 7 9 4 5 1019.0 1019.0 0.0
 
Date/Time
EDT
Temp
°C
App
Temp
°C
Dew
Point
Rel
Hum
%
Delta-T
°C
Wind Press
QNH
hPa
Press
MSL
hPa
Rain
since 9 am
mm
Dir
 
Spd
km/h
Gust
km/h
Spd
kts
Gust
kts
19/11:30pm 17.7 17.6 13.2 75 2.5 WSW 6 7 3 4 1019.2 1019.2 0.0
19/11:00pm 17.7 18.4 12.2 70 3.0 CALM 0 6 0 3 1019.3 1019.3 0.0
19/10:30pm 17.7 17.3 12.4 71 2.9 SSE 6 9 3 5 1018.9 1018.9 0.0
19/10:00pm 18.0 17.0 12.2 69 3.2 S 9 13 5 7 1018.6 1018.6 0.0
19/09:30pm 18.2 17.5 12.0 67 3.4 S 7 11 4 6 1018.3 1018.3 0.0
19/09:00pm 18.1 16.8 11.2 64 3.7 SSE 9 13 5 7 1018.0 1018.0 0.0
19/08:30pm 18.3 17.0 11.4 64 3.8 SSE 9 15 5 8 1017.7 1017.7 0.0
19/08:00pm 18.5 16.9 11.6 64 3.8 SSE 11 15 6 8 1017.2 1017.2 0.0
19/07:30pm 18.6 17.3 11.2 62 4.0 SSE 9 19 5 10 1016.7 1016.7 0.0
19/07:00pm 18.7 15.7 10.5 59 4.4 SSE 17 20 9 11 1016.0 1016.0 0.0
19/06:30pm 19.1 16.8 10.6 58 4.6 SSE 13 20 7 11 1015.4 1015.4 0.0
19/06:00pm 19.3 16.6 10.3 56 4.8 SE 15 26 8 14 1015.0 1015.0 0.0
19/05:30pm 19.4 16.1 9.6 53 5.2 SE 17 24 9 13 1014.6 1014.6 0.0
19/05:00pm 19.3 16.2 10.3 56 4.8 SE 17 28 9 15 1014.3 1014.3 0.0
19/04:30pm 19.2 16.0 9.9 55 5.0 ESE 17 24 9 13 1014.1 1014.1 0.0
19/04:00pm 19.4 15.5 8.7 50 5.6 SE 19 30 10 16 1014.0 1014.0 0.0
19/03:30pm 19.6 15.7 9.5 52 5.4 ESE 20 30 11 16 1013.9 1013.9 0.0

Other Formats:

Comma delimited format used in spreadsheet applications
http://www.bom.gov.au/fwo/IDN60801/IDN60801.95748.axf

JavaScript Object Notation format (JSON) in row-major order
http://www.bom.gov.au/fwo/IDN60801/IDN60801.95748.json